Meteo Giornale » Osservazioni meteo Bosnia-Erzegovina » Tuzla
ore: 07:30 - Osservazioni Meteo Tuzla
Lat. 44° 33' N Lon. 18° 42' E Alt. 306 metri s.l.m.
15 °C
Sereno
Temp. 24 Ore
12 °C
29 °C
Nord
1.8 Km/h
Dew point 15 °C
Umidità 100 %
Visibilità 10 Km
Il sole sorge alle ore 06:08
Il sole tramonta alle ore 19:20
| Data e Ora | Cielo e Fenomeni | T °C | DP °C | Um. % | Pres. hPa | Vis. km | Vento km/h | |
|---|---|---|---|---|---|---|---|---|
| Oggi h: 07:30 | Sereno | 15 | 15 | 100 | 1021 | 10 | N 1.8 | |
| Oggi h: 07:00 | Sereno | 13 | 13 | 100 | 1021 | 10 | N 1.8 | |
| Oggi h: 06:30 | Sereno | 12 | 12 | 100 | 1021 | 10 | N 3.7 | |
| Oggi h: 06:00 | Sereno | 12 | 12 | 100 | 1020 | 10 | N 0 | |
| Oggi h: 05:30 | Sereno | 12 | 12 | 100 | 1020 | 10 | N 0 | |
| Oggi h: 05:00 | Sereno | 13 | 13 | 100 | 1021 | 10 | N 1.8 | |
| Oggi h: 04:30 | Sereno | 13 | 13 | 100 | 1021 | 10 | N 0 | |
| Oggi h: 04:00 | Sereno | 13 | 13 | 100 | 1021 | 9 | N 0 | |
| Oggi h: 03:30 | Sereno | 14 | 14 | 100 | 1021 | 10 | N 0 | |
| Oggi h: 03:00 | Sereno | 14 | 14 | 100 | 1021 | 10 | N 3.7 | |
| Oggi h: 02:30 | Sereno | 14 | 14 | 100 | 1021 | 10 | N 0 | |
| Oggi h: 02:00 | Sereno | 14 | 14 | 100 | 1021 | 10 | N 3.7 | |
| Oggi h: 01:30 | Sereno | 15 | 15 | 100 | 1021 | 10 | N 1.8 | |
| Oggi h: 01:00 | Sereno | 15 | 15 | 100 | 1021 | 10 | N 1.8 | |
| Oggi h: 00:30 | Sereno | 15 | 15 | 100 | 1021 | 10 | N 0 | |
| Oggi h: 00:00 | Sereno | 16 | 16 | 100 | 1021 | 10 | N 1.8 | |
| Ieri h: 23:30 | Sereno | 16 | 16 | 100 | 1021 | 10 | N 3.7 | |
| Ieri h: 23:00 | Sereno | 17 | 16 | 93 | 1021 | 10 | N 3.7 | |
| Ieri h: 22:30 | Sereno | 18 | 16 | 88 | 1021 | 10 | N 3.7 | |
| Ieri h: 22:00 | Sereno | 18 | 16 | 88 | 1020 | 10 | N 3.7 | |
| Ieri h: 21:30 | Sereno | 18 | 16 | 88 | 1020 | 10 | N 0 | |
| Ieri h: 21:00 | Sereno | 20 | 15 | 72 | 1020 | 10 | N 5.5 | |
| Ieri h: 20:30 | Sereno | 19 | 16 | 82 | 1020 | 10 | N 1.8 | |
| Ieri h: 20:00 | Sereno | 24 | 14 | 53 | 1019 | 10 | N 5.5 | |
| Ieri h: 19:30 | Sereno | 26 | 13 | 44 | 1019 | 10 | E/NE 7.4 | |
| Ieri h: 19:00 | Sereno | 27 | 13 | 42 | 1019 | 10 | E/NE 9.3 | |
| Ieri h: 18:30 | Sereno | 28 | 13 | 39 | 1019 | 10 | NE 7.4 | |
| Ieri h: 18:00 | Sereno | 28 | 13 | 39 | 1019 | 10 | N/NE 9.3 | |
| Ieri h: 17:30 | Sereno | 29 | 13 | 37 | 1019 | 10 | N 9.3 | |
| Ieri h: 17:00 | Sereno | 29 | 13 | 37 | 1019 | 10 | N 3.7 | |
| Ieri h: 16:30 | Sereno | 29 | 14 | 39 | 1019 | 10 | E/SE 9.3 | |
| Ieri h: 16:00 | Poco Nuvoloso | 29 | 14 | 39 | 1019 | 10 | N 7.4 | |
| Ieri h: 15:30 | Poco Nuvoloso | 28 | 14 | 42 | 1019 | 10 | N 5.5 | |
| Ieri h: 15:00 | Poco Nuvoloso | 29 | 14 | 39 | 1020 | 10 | N 5.5 | |
| Ieri h: 14:30 | Nuvoloso | 28 | 14 | 42 | 1020 | 10 | E/SE 14.8 | |
| Ieri h: 14:00 | Nuvoloso | 28 | 15 | 45 | 1020 | 10 | N 5.5 | |
| Ieri h: 13:30 | Nuvoloso | 27 | 15 | 47 | 1020 | 10 | N 7.4 | |
| Ieri h: 13:00 | Nuvoloso | 28 | 17 | 51 | 1021 | 10 | N 5.5 | |
| Ieri h: 12:30 | Sereno | 26 | 15 | 50 | 1021 | 10 | O/SO 11.1 | |
| Ieri h: 12:00 | Sereno | 25 | 15 | 53 | 1021 | 10 | SO 9.3 | |
| Ieri h: 11:30 | Sereno | 24 | 15 | 57 | 1021 | 10 | SO 9.3 | |
| Ieri h: 11:00 | Sereno | 24 | 16 | 60 | 1021 | 10 | N 3.7 | |
| Ieri h: 10:30 | Sereno | 23 | 16 | 64 | 1021 | 10 | N 5.5 | |
| Ieri h: 10:00 | Sereno | 23 | 17 | 68 | 1021 | 10 | NO 7.4 | |
| Ieri h: 09:30 | Sereno | 22 | 18 | 78 | 1021 | 10 | O/NO 7.4 | |
| Ieri h: 09:00 | Molto Nuvoloso | 20 | 18 | 88 | 1021 | 10 | N 5.5 | |



